createdAt,value
2022-11-10T00:02:20.887Z,6.70
2022-11-10T00:05:06.817Z,6.70
2022-11-10T00:07:51.976Z,6.80
2022-11-10T00:10:57.154Z,6.80
2022-11-10T00:14:00.921Z,6.80
2022-11-10T00:17:02.416Z,6.70
2022-11-10T00:19:47.807Z,6.70
2022-11-10T00:22:34.989Z,6.70
2022-11-10T00:25:20.554Z,6.60
2022-11-10T00:28:05.955Z,6.50
2022-11-10T00:30:51.223Z,6.50
2022-11-10T00:33:38.983Z,6.40
2022-11-10T00:36:24.890Z,6.40
2022-11-10T00:39:11.440Z,6.40
2022-11-10T00:41:57.508Z,6.40
2022-11-10T00:44:42.977Z,6.40
2022-11-10T00:47:28.567Z,6.40
2022-11-10T00:50:14.760Z,6.40
2022-11-10T00:53:00.280Z,6.40
2022-11-10T00:55:45.966Z,6.40
2022-11-10T00:58:31.581Z,6.40
2022-11-10T01:01:19.372Z,6.30
2022-11-10T01:04:05.064Z,6.40
2022-11-10T01:06:51.870Z,6.40
2022-11-10T01:09:37.650Z,6.50
2022-11-10T01:12:23.411Z,6.50
2022-11-10T01:15:10.082Z,6.50
2022-11-10T01:17:56.474Z,6.50
2022-11-10T01:20:42.081Z,6.50
2022-11-10T01:23:27.840Z,6.50
2022-11-10T01:26:14.093Z,6.50
2022-11-10T01:28:59.767Z,6.40
2022-11-10T01:31:46.020Z,6.40
2022-11-10T01:34:31.663Z,6.40
2022-11-10T01:45:52.861Z,6.40
2022-11-10T01:48:44.454Z,6.50
2022-11-10T01:51:31.829Z,6.50
2022-11-10T01:54:22.340Z,6.50
2022-11-10T01:57:12.542Z,6.30
2022-11-10T02:05:34.362Z,6.00
2022-11-10T02:08:21.424Z,5.30
2022-11-10T02:11:07.152Z,5.30
2022-11-10T02:13:53.646Z,5.20
2022-11-10T02:16:40.150Z,5.20
2022-11-10T02:19:28.190Z,5.20
2022-11-10T02:22:14.042Z,5.20
2022-11-10T02:25:00.319Z,5.20
2022-11-10T02:27:45.978Z,5.30
2022-11-10T02:30:31.632Z,5.50
2022-11-10T02:33:20.367Z,5.50
2022-11-10T02:36:07.089Z,5.50
2022-11-10T02:38:52.759Z,5.50
2022-11-10T02:41:38.295Z,5.40
2022-11-10T02:44:23.770Z,5.40
2022-11-10T02:47:09.594Z,5.40
2022-11-10T02:49:55.127Z,5.30
2022-11-10T02:52:40.956Z,5.10
2022-11-10T02:55:26.773Z,5.00
2022-11-10T02:58:12.528Z,5.00
2022-11-10T03:00:58.385Z,5.00
2022-11-10T03:03:43.719Z,5.10
2022-11-10T03:06:29.303Z,5.10
2022-11-10T03:09:14.571Z,5.00
2022-11-10T03:12:00.014Z,5.00
2022-11-10T03:14:45.486Z,5.00
2022-11-10T03:17:31.015Z,5.00
2022-11-10T03:20:16.703Z,5.00
2022-11-10T03:23:04.152Z,5.10
2022-11-10T03:25:49.801Z,5.10
2022-11-10T03:28:35.589Z,5.10
2022-11-10T03:31:21.126Z,5.20
2022-11-10T03:34:06.656Z,5.30
2022-11-10T03:36:52.155Z,5.30
2022-11-10T03:39:37.726Z,5.40
2022-11-10T03:42:23.133Z,5.40
2022-11-10T03:45:09.385Z,5.40
2022-11-10T03:47:55.101Z,5.40
2022-11-10T03:50:40.509Z,5.50
2022-11-10T03:53:26.179Z,5.50
2022-11-10T03:56:12.195Z,5.50
2022-11-10T03:58:57.498Z,5.60
2022-11-10T04:01:43.192Z,5.70
2022-11-10T04:04:47.253Z,5.80
2022-11-10T04:07:51.285Z,5.90
2022-11-10T04:10:36.928Z,6.00
2022-11-10T04:13:40.980Z,6.10
2022-11-10T04:16:26.882Z,6.10
2022-11-10T04:19:12.755Z,6.20
2022-11-10T04:21:58.243Z,6.20
2022-11-10T04:24:43.646Z,6.30
2022-11-10T04:27:29.159Z,6.30
2022-11-10T04:30:14.960Z,6.40
2022-11-10T04:33:00.804Z,6.40
2022-11-10T04:35:47.932Z,6.40
2022-11-10T04:38:33.920Z,6.40
2022-11-10T04:41:19.797Z,6.30
2022-11-10T04:44:06.031Z,6.30
2022-11-10T04:46:51.930Z,6.20
2022-11-10T04:49:37.802Z,6.20
2022-11-10T04:52:23.340Z,6.20
2022-11-10T04:55:09.103Z,6.20
2022-11-10T04:57:54.759Z,6.30
2022-11-10T05:00:41.387Z,6.40
2022-11-10T05:03:27.279Z,6.50
2022-11-10T05:06:13.588Z,6.60
2022-11-10T05:08:59.396Z,6.70
2022-11-10T05:11:44.947Z,6.90
2022-11-10T05:14:30.379Z,6.90
2022-11-10T05:17:15.986Z,7.00
2022-11-10T05:20:01.435Z,7.00
2022-11-10T05:23:08.206Z,7.00
2022-11-10T05:25:53.809Z,7.10
2022-11-10T05:28:41.929Z,7.10
2022-11-10T05:31:27.645Z,7.10
2022-11-10T05:34:14.410Z,7.20
2022-11-10T05:37:00.153Z,7.20
2022-11-10T05:39:45.502Z,7.30
2022-11-10T05:42:31.175Z,7.30
2022-11-10T05:45:16.960Z,7.30
2022-11-10T05:48:02.972Z,7.30
2022-11-10T05:50:49.765Z,7.30
2022-11-10T05:53:35.533Z,7.30
2022-11-10T05:56:22.182Z,7.30
2022-11-10T05:59:07.600Z,7.30
2022-11-10T06:01:52.990Z,7.20
2022-11-10T06:04:38.804Z,7.20
2022-11-10T06:07:24.598Z,7.10
2022-11-10T06:10:10.170Z,7.10
2022-11-10T06:12:55.909Z,7.10
2022-11-10T06:15:46.101Z,7.20
2022-11-10T06:18:34.809Z,7.30
2022-11-10T06:21:20.164Z,7.40
2022-11-10T06:24:05.857Z,7.40
2022-11-10T06:26:51.520Z,7.50
2022-11-10T06:29:36.962Z,7.50
2022-11-10T06:32:22.836Z,7.50
2022-11-10T06:35:08.891Z,7.50
2022-11-10T06:38:10.681Z,7.50
2022-11-10T06:40:56.072Z,7.50
2022-11-10T06:43:41.561Z,7.60
2022-11-10T06:46:27.390Z,7.60
2022-11-10T06:49:12.961Z,7.70
2022-11-10T06:51:58.556Z,7.70
2022-11-10T06:54:43.854Z,7.70
2022-11-10T06:57:29.359Z,7.70
2022-11-10T07:00:15.758Z,7.70
2022-11-10T07:03:02.189Z,7.70
2022-11-10T07:05:47.911Z,7.70
2022-11-10T07:08:33.566Z,7.60
2022-11-10T07:11:19.165Z,7.60
2022-11-10T07:14:04.765Z,7.60
2022-11-10T07:16:50.303Z,7.50
2022-11-10T07:19:35.893Z,7.60
2022-11-10T07:22:21.378Z,7.60
2022-11-10T07:25:07.359Z,7.60
2022-11-10T07:27:58.123Z,7.60
2022-11-10T07:30:43.737Z,7.60
2022-11-10T07:33:29.330Z,7.60
2022-11-10T07:36:14.906Z,7.70
2022-11-10T07:39:00.386Z,7.60
2022-11-10T07:41:49.966Z,7.50
2022-11-10T07:44:37.717Z,7.40
2022-11-10T07:47:24.670Z,7.40
2022-11-10T07:50:10.444Z,7.30
2022-11-10T07:53:14.405Z,7.40
2022-11-10T07:55:59.882Z,7.30
2022-11-10T07:58:46.977Z,7.40
2022-11-10T08:01:34.088Z,7.40
2022-11-10T08:04:19.389Z,7.40
2022-11-10T08:07:05.248Z,7.40
2022-11-10T08:09:50.927Z,7.50
2022-11-10T08:12:36.379Z,7.50
2022-11-10T08:15:22.268Z,7.60
2022-11-10T08:18:16.891Z,7.60
2022-11-10T08:21:03.988Z,7.70
2022-11-10T08:23:49.942Z,7.70
2022-11-10T08:26:36.168Z,7.70
2022-11-10T08:29:21.370Z,7.80
2022-11-10T08:32:06.991Z,7.90
2022-11-10T08:34:52.798Z,8.00
2022-11-10T08:37:38.130Z,8.00
2022-11-10T08:40:27.572Z,8.10
2022-11-10T08:43:14.499Z,8.60
2022-11-10T08:46:02.002Z,8.60
2022-11-10T08:48:48.231Z,8.50
2022-11-10T08:51:38.906Z,8.50
2022-11-10T08:54:25.088Z,8.50
2022-11-10T08:57:10.705Z,8.60
2022-11-10T08:59:56.334Z,8.60
2022-11-10T09:02:42.090Z,8.60
2022-11-10T09:05:27.555Z,8.60
2022-11-10T09:08:13.664Z,8.50
2022-11-10T09:11:02.577Z,8.50
2022-11-10T09:13:48.420Z,8.60
2022-11-10T09:16:36.816Z,8.60
2022-11-10T09:19:22.524Z,8.60
2022-11-10T09:22:10.268Z,8.70
2022-11-10T09:24:55.729Z,8.70
2022-11-10T09:27:41.476Z,8.70
2022-11-10T09:30:27.058Z,8.80
2022-11-10T09:33:13.018Z,8.80
2022-11-10T09:35:59.810Z,8.90
2022-11-10T09:38:45.349Z,8.90
2022-11-10T09:41:31.153Z,9.00
2022-11-10T09:44:30.178Z,9.10
2022-11-10T09:47:55.851Z,9.20
2022-11-10T09:50:31.125Z,9.20
2022-11-10T09:53:24.774Z,9.30
2022-11-10T09:56:18.812Z,9.40
2022-11-10T09:59:18.637Z,9.50
2022-11-10T10:02:16.431Z,9.60
2022-11-10T10:05:32.975Z,9.60
2022-11-10T10:08:39.743Z,9.60
2022-11-10T10:11:48.651Z,9.80
2022-11-10T10:14:52.593Z,9.80
2022-11-10T10:17:49.467Z,9.80
2022-11-10T10:21:00.759Z,9.80
2022-11-10T10:24:19.851Z,9.90
2022-11-10T10:27:06.180Z,9.90
2022-11-10T10:29:52.278Z,9.90
2022-11-10T10:32:37.809Z,9.90
2022-11-10T10:35:23.484Z,10.00
2022-11-10T10:38:27.428Z,9.90
2022-11-10T10:41:25.209Z,10.00
2022-11-10T10:44:13.724Z,10.00
2022-11-10T10:47:01.265Z,10.10
2022-11-10T10:49:47.022Z,10.10
2022-11-10T10:52:33.118Z,10.20
2022-11-10T10:55:18.803Z,10.30
2022-11-10T10:58:26.651Z,10.30
2022-11-10T11:01:15.549Z,10.30
2022-11-10T11:04:04.977Z,10.40
2022-11-10T11:06:58.360Z,10.40
2022-11-10T11:09:44.722Z,10.50
2022-11-10T11:12:33.561Z,10.50
2022-11-10T11:15:21.792Z,10.50
2022-11-10T11:18:16.082Z,10.50
2022-11-10T11:21:35.123Z,10.50
2022-11-10T11:24:39.038Z,10.50
2022-11-10T11:27:43.358Z,10.50
2022-11-10T11:30:42.581Z,10.50
2022-11-10T11:33:49.772Z,10.60
2022-11-10T11:37:05.366Z,10.60
2022-11-10T11:40:05.082Z,10.60
2022-11-10T11:43:17.785Z,10.50
2022-11-10T11:46:06.270Z,10.50
2022-11-10T11:49:15.302Z,10.50
2022-11-10T11:52:27.807Z,10.40
2022-11-10T11:55:25.758Z,10.40
2022-11-10T11:58:11.363Z,10.50
2022-11-10T12:01:08.986Z,10.50
2022-11-10T12:04:10.302Z,10.60
2022-11-10T12:07:05.095Z,10.70
2022-11-10T12:09:57.421Z,10.70
2022-11-10T12:13:25.104Z,10.80
2022-11-10T12:16:20.400Z,10.80
2022-11-10T12:19:41.540Z,10.90
2022-11-10T12:22:42.613Z,10.90
2022-11-10T12:25:40.415Z,10.90
2022-11-10T12:28:35.041Z,10.90
2022-11-10T12:31:26.096Z,10.80
2022-11-10T12:34:36.032Z,10.80
2022-11-10T12:37:31.414Z,10.90
2022-11-10T12:40:21.994Z,10.90
2022-11-10T12:43:18.299Z,10.90
2022-11-10T12:46:08.761Z,10.90
2022-11-10T12:49:06.129Z,10.90
2022-11-10T12:51:57.685Z,10.90
2022-11-10T12:54:45.568Z,10.90
2022-11-10T12:57:33.205Z,10.90
2022-11-10T13:00:38.309Z,10.90
2022-11-10T13:03:50.305Z,10.90
2022-11-10T13:06:37.056Z,11.00
2022-11-10T13:09:31.963Z,11.00
2022-11-10T13:12:21.276Z,11.10
2022-11-10T13:15:39.004Z,11.00
2022-11-10T13:18:45.015Z,11.00
2022-11-10T13:21:53.330Z,10.90
2022-11-10T13:24:40.921Z,10.90
2022-11-10T13:27:44.233Z,10.90
2022-11-10T13:30:45.015Z,10.90
2022-11-10T13:33:35.490Z,10.90
2022-11-10T13:36:36.911Z,10.90
2022-11-10T13:39:27.027Z,10.80
2022-11-10T13:42:24.141Z,10.90
2022-11-10T13:45:33.850Z,10.90
2022-11-10T13:48:58.891Z,10.90
2022-11-10T13:52:06.342Z,10.90
2022-11-10T13:55:31.171Z,10.90
2022-11-10T13:58:35.437Z,10.90
2022-11-10T14:01:26.938Z,10.90
2022-11-10T14:04:40.398Z,10.90
2022-11-10T14:07:30.259Z,10.90
2022-11-10T14:10:26.616Z,10.90
2022-11-10T14:13:17.728Z,10.80
2022-11-10T14:16:03.796Z,10.80
2022-11-10T14:18:55.726Z,10.80
2022-11-10T14:21:49.974Z,10.80
2022-11-10T14:24:49.476Z,10.70
2022-11-10T14:27:37.213Z,10.70
2022-11-10T14:30:28.274Z,10.60
2022-11-10T14:33:15.260Z,10.60
2022-11-10T14:36:06.386Z,10.50
2022-11-10T14:38:53.373Z,10.40
2022-11-10T14:41:46.734Z,10.40
2022-11-10T14:44:34.200Z,10.40
2022-11-10T14:47:26.474Z,10.40
2022-11-10T14:50:18.220Z,10.40
2022-11-10T14:53:29.401Z,10.40
2022-11-10T14:56:19.689Z,10.40
2022-11-10T14:59:07.438Z,10.40
2022-11-10T15:01:59.046Z,10.40
2022-11-10T15:04:46.338Z,10.50
2022-11-10T15:07:32.296Z,10.40
2022-11-10T15:10:22.055Z,10.40
2022-11-10T15:13:13.608Z,10.40
2022-11-10T15:16:28.488Z,10.40
2022-11-10T15:19:24.339Z,10.40
2022-11-10T15:22:13.078Z,10.40
2022-11-10T15:25:08.673Z,10.40
2022-11-10T15:28:04.994Z,10.40
2022-11-10T15:30:52.926Z,10.30
2022-11-10T15:33:45.336Z,10.30
2022-11-10T15:36:34.518Z,10.30
2022-11-10T15:39:25.358Z,10.30
2022-11-10T15:42:24.837Z,10.30
2022-11-10T15:45:10.415Z,10.30
2022-11-10T15:47:56.255Z,10.30
2022-11-10T15:50:44.231Z,10.30
2022-11-10T15:53:38.567Z,10.30
2022-11-10T15:56:25.465Z,10.30
2022-11-10T15:59:10.992Z,10.30
2022-11-10T16:01:56.970Z,10.30
2022-11-10T16:04:42.236Z,10.30
2022-11-10T16:07:27.744Z,10.30
2022-11-10T16:10:13.165Z,10.30
2022-11-10T16:12:58.799Z,10.30
2022-11-10T16:15:45.612Z,10.30
2022-11-10T16:18:31.432Z,10.30
2022-11-10T16:21:23.486Z,10.30
2022-11-10T16:24:09.629Z,10.30
2022-11-10T16:26:55.538Z,10.30
2022-11-10T16:29:42.621Z,10.30
2022-11-10T16:32:28.412Z,10.30
2022-11-10T16:35:14.757Z,10.30
2022-11-10T16:38:00.599Z,10.30
2022-11-10T16:40:54.642Z,10.40
2022-11-10T16:43:40.149Z,10.40
2022-11-10T16:51:00.664Z,10.20
2022-11-10T16:53:46.959Z,10.10
2022-11-10T16:56:32.172Z,10.10
2022-11-10T16:59:17.790Z,10.10
2022-11-10T17:06:30.065Z,10.00
2022-11-10T17:09:25.611Z,10.00
2022-11-10T17:12:14.915Z,10.00
2022-11-10T17:15:01.750Z,10.00
2022-11-10T17:17:51.546Z,10.00
2022-11-10T17:20:40.141Z,10.00
2022-11-10T17:23:26.771Z,10.00
2022-11-10T17:26:14.928Z,10.00
2022-11-10T17:29:00.516Z,9.90
2022-11-10T17:33:29.082Z,9.90
2022-11-10T17:36:18.815Z,9.80
2022-11-10T17:39:05.829Z,9.70
2022-11-10T17:41:51.702Z,9.70
2022-11-10T17:44:45.775Z,9.60
2022-11-10T17:47:42.175Z,9.60
2022-11-10T17:50:27.719Z,9.50
2022-11-10T17:53:28.321Z,9.50
2022-11-10T17:56:14.079Z,9.50
2022-11-10T17:58:59.941Z,9.40
2022-11-10T18:01:45.789Z,9.40
2022-11-10T18:04:31.784Z,9.40
2022-11-10T18:07:17.363Z,9.30
2022-11-10T18:10:02.953Z,9.30
2022-11-10T18:12:48.838Z,9.30
2022-11-10T18:15:34.247Z,9.20
2022-11-10T18:18:20.081Z,9.20
2022-11-10T18:21:12.459Z,9.30
2022-11-10T18:23:57.946Z,9.30
2022-11-10T18:26:43.519Z,9.30
2022-11-10T18:29:29.656Z,9.30
2022-11-10T18:32:15.193Z,9.30
2022-11-10T18:35:00.703Z,9.30
2022-11-10T18:37:46.303Z,9.30
2022-11-10T18:40:32.885Z,9.30
2022-11-10T18:43:18.261Z,9.30
2022-11-10T18:46:03.766Z,9.30
2022-11-10T18:48:49.206Z,9.30
2022-11-10T18:51:34.954Z,9.30
2022-11-10T18:54:20.552Z,9.20
2022-11-10T18:57:05.948Z,9.20
2022-11-10T18:59:51.861Z,9.20
2022-11-10T19:02:40.628Z,9.20
2022-11-10T19:05:25.925Z,9.20
2022-11-10T19:08:11.407Z,9.20
2022-11-10T19:10:57.590Z,9.20
2022-11-10T19:13:44.085Z,9.20
2022-11-10T19:16:30.308Z,9.20
2022-11-10T19:19:16.111Z,9.20
2022-11-10T19:22:01.552Z,9.10
2022-11-10T19:25:06.599Z,9.10
2022-11-10T19:27:52.802Z,9.00
2022-11-10T19:30:39.395Z,9.00
2022-11-10T19:33:25.165Z,9.00
2022-11-10T19:36:29.377Z,8.90
2022-11-10T19:39:15.556Z,8.90
2022-11-10T19:42:01.240Z,8.80
2022-11-10T19:44:47.029Z,8.80
2022-11-10T19:47:32.684Z,8.80
2022-11-10T19:50:18.247Z,8.80
2022-11-10T19:53:03.880Z,8.80
2022-11-10T19:55:49.409Z,8.70
2022-11-10T19:58:39.196Z,8.70
2022-11-10T20:01:26.415Z,8.70
2022-11-10T20:04:12.608Z,8.70
2022-11-10T20:07:16.644Z,8.60
2022-11-10T20:10:02.349Z,8.60
2022-11-10T20:12:47.960Z,8.50
2022-11-10T20:15:37.906Z,8.50
2022-11-10T20:18:23.970Z,8.50
2022-11-10T20:21:13.588Z,8.50
2022-11-10T20:23:59.004Z,8.40
2022-11-10T20:26:44.729Z,8.40
2022-11-10T20:29:30.036Z,8.40
2022-11-10T20:32:15.906Z,8.40
2022-11-10T20:35:01.464Z,8.40
2022-11-10T20:37:47.144Z,8.40
2022-11-10T20:40:48.641Z,8.40
2022-11-10T20:43:36.152Z,8.40
2022-11-10T20:46:48.399Z,8.30
2022-11-10T20:49:28.623Z,8.30
2022-11-10T20:52:14.519Z,8.20
2022-11-10T20:55:01.624Z,8.20
2022-11-10T20:57:47.248Z,8.20
2022-11-10T21:00:33.046Z,8.10
2022-11-10T21:03:18.698Z,8.10
2022-11-10T21:06:05.526Z,8.10
2022-11-10T21:08:51.432Z,8.10
2022-11-10T21:11:55.679Z,8.00
2022-11-10T21:14:41.389Z,8.00
2022-11-10T21:17:27.137Z,7.90
2022-11-10T21:20:13.949Z,7.90
2022-11-10T21:23:03.387Z,7.80
2022-11-10T21:25:57.596Z,7.80
2022-11-10T21:28:43.528Z,7.80
2022-11-10T21:31:30.611Z,7.80
2022-11-10T21:34:16.232Z,7.80
2022-11-10T21:37:01.772Z,7.80
2022-11-10T21:39:47.294Z,7.80
2022-11-10T21:42:35.553Z,7.80
2022-11-10T21:45:22.217Z,7.80
2022-11-10T21:48:08.554Z,7.80
2022-11-10T21:51:02.721Z,7.80
2022-11-10T21:53:48.631Z,7.80
2022-11-10T21:56:34.363Z,7.90
2022-11-10T21:59:19.663Z,7.80
2022-11-10T22:02:05.766Z,7.80
2022-11-10T22:04:51.557Z,7.80
2022-11-10T22:07:38.740Z,7.70
2022-11-10T22:10:42.640Z,7.70
2022-11-10T22:13:46.364Z,7.70
2022-11-10T22:17:05.498Z,7.70
2022-11-10T22:19:51.119Z,7.70
2022-11-10T22:22:36.643Z,7.70
2022-11-10T22:25:22.164Z,7.60
2022-11-10T22:28:08.083Z,7.70
2022-11-10T22:30:53.657Z,7.60
2022-11-10T22:33:40.822Z,7.50
2022-11-10T22:36:26.608Z,7.50
2022-11-10T22:39:12.356Z,7.50
2022-11-10T22:42:16.616Z,7.40
2022-11-10T22:45:02.157Z,7.50
2022-11-10T22:48:06.091Z,7.40
2022-11-10T22:50:59.669Z,7.50
2022-11-10T22:53:45.619Z,7.40
2022-11-10T22:56:32.974Z,7.40
2022-11-10T22:59:19.501Z,7.40
2022-11-10T23:02:04.807Z,7.40
2022-11-10T23:04:50.399Z,7.40
2022-11-10T23:07:36.003Z,7.40
2022-11-10T23:10:21.554Z,7.30
2022-11-10T23:13:07.204Z,7.30
2022-11-10T23:15:54.342Z,7.30
2022-11-10T23:18:41.780Z,7.30
2022-11-10T23:21:30.144Z,7.20
2022-11-10T23:24:18.328Z,7.20
2022-11-10T23:27:04.197Z,7.20
2022-11-10T23:29:49.691Z,7.10
2022-11-10T23:32:35.126Z,7.10
2022-11-10T23:35:20.605Z,7.10
2022-11-10T23:38:06.172Z,7.00
2022-11-10T23:40:56.119Z,7.10
2022-11-10T23:43:42.507Z,7.10
2022-11-10T23:46:28.314Z,7.00
2022-11-10T23:49:13.698Z,7.10
2022-11-10T23:51:59.143Z,7.10
2022-11-10T23:54:44.800Z,7.00
2022-11-10T23:57:30.124Z,7.00
